createdAt,value
2018-04-26T00:01:45.623Z,62.10
2018-04-26T00:04:13.108Z,63.09
2018-04-26T00:06:40.603Z,63.79
2018-04-26T00:09:08.083Z,63.79
2018-04-26T00:11:35.562Z,64.07
2018-04-26T00:14:03.050Z,64.01
2018-04-26T00:16:30.527Z,63.80
2018-04-26T00:18:58.106Z,63.76
2018-04-26T00:21:25.579Z,63.67
2018-04-26T00:23:53.076Z,63.44
2018-04-26T00:26:20.544Z,63.62
2018-04-26T00:28:48.037Z,63.69
2018-04-26T00:31:15.499Z,63.72
2018-04-26T00:33:42.998Z,63.88
2018-04-26T00:36:10.473Z,63.70
2018-04-26T00:38:37.950Z,63.77
2018-04-26T00:41:05.408Z,63.77
2018-04-26T00:43:32.889Z,63.89
2018-04-26T00:46:00.379Z,63.85
2018-04-26T00:48:27.863Z,65.50
2018-04-26T00:50:55.342Z,66.43
2018-04-26T00:53:22.797Z,67.74
2018-04-26T00:55:50.286Z,68.43
2018-04-26T00:58:17.767Z,68.97
2018-04-26T01:00:45.256Z,68.42
2018-04-26T01:03:12.719Z,68.46
2018-04-26T01:05:40.197Z,69.09
2018-04-26T01:08:07.654Z,69.89
2018-04-26T01:10:35.138Z,70.39
2018-04-26T01:13:02.611Z,70.31
2018-04-26T01:15:30.094Z,70.01
2018-04-26T01:17:57.559Z,69.15
2018-04-26T01:20:25.045Z,68.83
2018-04-26T01:22:52.500Z,69.01
2018-04-26T01:25:19.978Z,69.39
2018-04-26T01:27:47.461Z,69.62
2018-04-26T01:30:14.950Z,69.47
2018-04-26T01:32:42.412Z,69.58
2018-04-26T01:35:09.899Z,69.79
2018-04-26T01:37:44.187Z,70.49
2018-04-26T01:40:11.670Z,70.48
2018-04-26T01:42:39.130Z,70.04
2018-04-26T01:45:06.709Z,69.98
2018-04-26T01:47:34.187Z,69.56
2018-04-26T01:50:01.667Z,69.59
2018-04-26T01:52:29.135Z,69.51
2018-04-26T01:54:56.615Z,69.15
2018-04-26T01:57:24.073Z,68.97
2018-04-26T01:59:51.555Z,68.50
2018-04-26T02:02:19.048Z,68.48
2018-04-26T02:04:46.542Z,68.17
2018-04-26T02:07:14.003Z,68.31
2018-04-26T02:09:41.458Z,68.29
2018-04-26T02:12:08.946Z,68.28
2018-04-26T02:14:36.426Z,67.98
2018-04-26T02:17:03.901Z,68.01
2018-04-26T02:19:31.359Z,68.30
2018-04-26T02:21:58.844Z,68.15
2018-04-26T02:24:26.306Z,68.32
2018-04-26T02:26:53.790Z,68.23
2018-04-26T02:29:21.250Z,68.16
2018-04-26T02:31:48.742Z,68.23
2018-04-26T02:34:16.193Z,68.12
2018-04-26T02:36:43.670Z,68.20
2018-04-26T02:39:11.133Z,67.92
2018-04-26T02:41:38.614Z,67.85
2018-04-26T02:44:06.074Z,67.84
2018-04-26T02:46:33.554Z,67.40
2018-04-26T02:49:01.022Z,67.61
2018-04-26T02:51:28.506Z,67.35
2018-04-26T02:53:55.978Z,67.38
2018-04-26T02:56:23.453Z,66.81
2018-04-26T02:58:50.919Z,66.41
2018-04-26T03:01:18.422Z,66.58
2018-04-26T03:03:45.883Z,66.69
2018-04-26T03:06:13.342Z,66.66
2018-04-26T03:08:40.829Z,66.80
2018-04-26T03:11:08.285Z,66.83
2018-04-26T03:13:35.767Z,66.84
2018-04-26T03:16:03.231Z,66.98
2018-04-26T03:18:30.710Z,66.94
2018-04-26T03:20:58.190Z,66.08
2018-04-26T03:23:25.675Z,65.85
2018-04-26T03:25:53.178Z,65.25
2018-04-26T03:28:20.658Z,65.20
2018-04-26T03:30:48.127Z,65.05
2018-04-26T03:33:15.607Z,64.68
2018-04-26T03:35:43.070Z,64.73
2018-04-26T03:38:10.550Z,64.80
2018-04-26T03:40:38.015Z,64.93
2018-04-26T03:43:05.506Z,65.21
2018-04-26T03:45:32.965Z,64.92
2018-04-26T03:48:00.450Z,65.24
2018-04-26T03:50:27.916Z,65.49
2018-04-26T03:52:55.410Z,65.96
2018-04-26T03:55:22.873Z,66.51
2018-04-26T03:57:50.374Z,66.69
2018-04-26T04:00:29.593Z,66.90
2018-04-26T04:03:08.884Z,67.03
2018-04-26T04:05:48.305Z,67.26
2018-04-26T04:08:15.795Z,67.42
2018-04-26T04:10:43.266Z,67.69
2018-04-26T04:13:10.749Z,68.00
2018-04-26T04:15:38.206Z,68.57
2018-04-26T04:18:05.690Z,69.17
2018-04-26T04:20:33.147Z,69.64
2018-04-26T04:23:01.511Z,69.68
2018-04-26T04:25:28.975Z,69.84
2018-04-26T04:27:56.494Z,70.23
2018-04-26T04:30:23.934Z,70.37
2018-04-26T04:32:51.414Z,70.66
2018-04-26T04:35:18.923Z,70.90
2018-04-26T04:37:46.348Z,71.13
2018-04-26T04:40:13.827Z,71.45
2018-04-26T04:42:41.294Z,71.54
2018-04-26T04:45:08.823Z,71.51
2018-04-26T04:47:36.260Z,71.32
2018-04-26T04:50:03.742Z,71.28
2018-04-26T04:52:31.198Z,71.35
2018-04-26T04:54:58.674Z,71.39
2018-04-26T04:57:26.129Z,71.56
2018-04-26T04:59:53.623Z,71.52
2018-04-26T05:02:21.090Z,71.67
2018-04-26T05:04:48.591Z,71.33
2018-04-26T05:07:16.903Z,70.89
2018-04-26T05:09:44.542Z,70.76
2018-04-26T05:12:11.999Z,70.45
2018-04-26T05:14:39.473Z,70.29
2018-04-26T05:17:06.996Z,70.00
2018-04-26T05:19:34.522Z,69.51
2018-04-26T05:22:01.974Z,69.19
2018-04-26T05:24:29.462Z,68.99
2018-04-26T05:26:56.923Z,68.96
2018-04-26T05:29:24.407Z,68.90
2018-04-26T05:31:51.863Z,68.77
2018-04-26T05:34:19.341Z,69.02
2018-04-26T05:36:46.798Z,68.78
2018-04-26T05:39:14.258Z,68.16
2018-04-26T05:41:41.738Z,67.74
2018-04-26T05:44:09.198Z,67.74
2018-04-26T05:46:36.694Z,67.32
2018-04-26T05:49:04.151Z,67.11
2018-04-26T05:51:31.642Z,66.76
2018-04-26T05:53:59.106Z,66.78
2018-04-26T05:56:26.587Z,66.53
2018-04-26T05:58:54.046Z,66.72
2018-04-26T06:01:21.543Z,66.75
2018-04-26T06:03:49.032Z,66.13
2018-04-26T06:06:16.494Z,65.92
2018-04-26T06:08:43.953Z,66.02
2018-04-26T06:11:11.429Z,65.82
2018-04-26T06:13:38.886Z,65.50
2018-04-26T06:16:06.388Z,64.59
2018-04-26T06:18:33.872Z,63.98
2018-04-26T06:21:01.350Z,62.88
2018-04-26T06:23:28.816Z,61.80
2018-04-26T06:25:56.299Z,59.60
2018-04-26T06:28:23.779Z,59.53
2018-04-26T06:30:51.258Z,58.69
2018-04-26T06:33:18.726Z,58.50
2018-04-26T06:35:46.186Z,59.28
2018-04-26T06:38:13.674Z,59.51
2018-04-26T06:40:41.162Z,59.72
2018-04-26T06:43:08.677Z,59.49
2018-04-26T06:45:36.183Z,59.49
2018-04-26T06:48:03.670Z,59.65
2018-04-26T06:50:31.137Z,59.57
2018-04-26T06:53:05.032Z,59.14
2018-04-26T06:55:32.496Z,58.31
2018-04-26T06:57:59.975Z,59.21
2018-04-26T07:00:27.449Z,56.76
2018-04-26T07:02:54.962Z,56.24
2018-04-26T07:05:22.431Z,55.86
2018-04-26T07:07:49.911Z,55.56
2018-04-26T07:10:17.367Z,55.65
2018-04-26T07:12:44.858Z,53.41
2018-04-26T07:15:12.314Z,53.12
2018-04-26T07:17:39.826Z,53.24
2018-04-26T07:20:07.347Z,52.41
2018-04-26T07:22:34.831Z,53.04
2018-04-26T07:25:02.291Z,53.69
2018-04-26T07:27:29.779Z,53.84
2018-04-26T07:29:57.258Z,54.33
2018-04-26T07:32:24.751Z,54.08
2018-04-26T07:34:52.274Z,52.88
2018-04-26T07:37:19.729Z,53.39
2018-04-26T07:39:48.134Z,53.09
2018-04-26T07:42:15.625Z,53.06
2018-04-26T07:44:43.105Z,51.50
2018-04-26T07:47:10.611Z,51.96
2018-04-26T07:49:40.075Z,51.38
2018-04-26T07:52:07.918Z,51.25
2018-04-26T07:54:36.933Z,51.04
2018-04-26T07:57:04.471Z,51.37
2018-04-26T07:59:31.988Z,50.40
2018-04-26T08:02:00.471Z,50.35
2018-04-26T08:04:27.974Z,48.69
2018-04-26T08:06:55.439Z,48.38
2018-04-26T08:09:22.923Z,48.54
2018-04-26T08:11:50.432Z,48.51
2018-04-26T08:14:22.086Z,47.75
2018-04-26T08:16:50.306Z,47.20
2018-04-26T08:19:17.864Z,47.59
2018-04-26T08:21:45.331Z,47.64
2018-04-26T08:24:12.834Z,47.20
2018-04-26T08:26:40.297Z,46.52
2018-04-26T08:29:07.993Z,45.89
2018-04-26T08:31:38.981Z,44.04
2018-04-26T08:34:06.747Z,44.67
2018-04-26T08:36:34.221Z,44.71
2018-04-26T08:39:01.719Z,45.21
2018-04-26T08:41:31.833Z,44.56
2018-04-26T08:43:59.469Z,44.49
2018-04-26T08:46:26.931Z,43.79
2018-04-26T08:48:54.418Z,43.10
2018-04-26T08:51:21.910Z,42.88
2018-04-26T08:53:49.390Z,42.81
2018-04-26T08:56:16.891Z,42.92
2018-04-26T08:58:44.414Z,43.16
2018-04-26T09:01:13.465Z,43.43
2018-04-26T09:03:41.245Z,42.62
2018-04-26T09:06:08.761Z,41.92
2018-04-26T09:08:36.227Z,41.99
2018-04-26T09:11:03.742Z,42.21
2018-04-26T09:13:31.222Z,41.74
2018-04-26T09:15:58.770Z,41.49
2018-04-26T09:18:26.186Z,41.71
2018-04-26T09:20:53.734Z,40.64
2018-04-26T09:23:21.232Z,40.58
2018-04-26T09:25:48.743Z,40.29
2018-04-26T09:28:20.076Z,40.31
2018-04-26T09:30:48.546Z,39.19
2018-04-26T09:33:16.003Z,37.99
2018-04-26T09:35:43.835Z,38.13
2018-04-26T09:38:11.956Z,37.51
2018-04-26T09:40:41.668Z,37.63
2018-04-26T09:43:09.999Z,36.66
2018-04-26T09:45:37.587Z,35.82
2018-04-26T09:48:05.058Z,37.01
2018-04-26T09:50:32.561Z,36.78
2018-04-26T09:53:02.574Z,36.04
2018-04-26T09:55:30.155Z,36.54
2018-04-26T09:57:57.620Z,36.12
2018-04-26T10:00:27.987Z,36.08
2018-04-26T10:02:55.451Z,36.27
2018-04-26T10:05:28.420Z,35.62
2018-04-26T10:07:55.874Z,34.93
2018-04-26T10:10:23.367Z,31.96
2018-04-26T10:12:53.963Z,32.34
2018-04-26T10:15:21.452Z,31.80
2018-04-26T10:17:52.393Z,30.58
2018-04-26T10:20:20.043Z,30.76
2018-04-26T10:22:47.531Z,31.23
2018-04-26T10:25:15.059Z,31.04
2018-04-26T10:27:42.941Z,31.27
2018-04-26T10:30:10.443Z,32.17
2018-04-26T10:32:38.232Z,33.07
2018-04-26T10:35:05.729Z,32.43
2018-04-26T10:37:33.239Z,33.16
2018-04-26T10:40:00.770Z,33.04
2018-04-26T10:42:28.265Z,33.05
2018-04-26T10:44:55.758Z,32.40
2018-04-26T10:47:23.257Z,31.41
2018-04-26T10:49:50.736Z,31.21
2018-04-26T10:52:19.235Z,30.61
2018-04-26T10:54:48.522Z,31.89
2018-04-26T10:57:16.216Z,32.55
2018-04-26T10:59:43.677Z,32.31
2018-04-26T11:02:12.008Z,33.71
2018-04-26T11:04:42.215Z,30.67
2018-04-26T11:07:09.794Z,28.78
2018-04-26T11:09:37.321Z,27.56
2018-04-26T11:12:04.843Z,26.61
2018-04-26T11:14:32.317Z,28.08
2018-04-26T11:16:59.876Z,28.96
2018-04-26T11:19:27.333Z,30.56
2018-04-26T11:21:54.818Z,30.14
2018-04-26T11:24:22.391Z,30.50
2018-04-26T11:26:49.791Z,31.89
2018-04-26T11:29:18.096Z,30.48
2018-04-26T11:31:45.518Z,30.37
2018-04-26T11:34:13.026Z,28.68
2018-04-26T11:36:40.486Z,26.80
2018-04-26T11:39:08.014Z,26.30
2018-04-26T11:41:35.477Z,21.89
2018-04-26T11:44:02.983Z,20.51
2018-04-26T11:46:30.464Z,21.63
2018-04-26T11:48:57.955Z,23.01
2018-04-26T11:51:25.458Z,21.58
2018-04-26T11:53:53.038Z,19.50
2018-04-26T11:56:22.421Z,20.59
2018-04-26T11:58:49.955Z,20.68
2018-04-26T12:01:17.526Z,18.30
2018-04-26T12:03:45.630Z,18.19
2018-04-26T12:06:13.091Z,17.68
2018-04-26T12:08:40.589Z,18.20
2018-04-26T12:11:08.103Z,18.23
2018-04-26T12:13:35.591Z,16.88
2018-04-26T12:16:06.188Z,18.10
2018-04-26T12:18:35.387Z,17.08
2018-04-26T12:21:03.774Z,15.43
2018-04-26T12:23:31.367Z,15.01
2018-04-26T12:25:58.792Z,15.27
2018-04-26T12:28:27.375Z,15.59
2018-04-26T12:30:54.891Z,15.87
2018-04-26T12:33:25.152Z,15.87
2018-04-26T12:35:53.888Z,19.17
2018-04-26T12:38:24.607Z,19.28
2018-04-26T12:40:52.118Z,18.61
2018-04-26T12:43:19.583Z,16.74
2018-04-26T12:45:47.069Z,16.58
2018-04-26T12:48:14.554Z,14.90
2018-04-26T12:50:42.096Z,15.39
2018-04-26T12:53:09.963Z,14.61
2018-04-26T12:55:37.454Z,14.44
2018-04-26T12:58:04.968Z,13.83
2018-04-26T13:00:32.440Z,14.48
2018-04-26T13:02:59.914Z,15.97
2018-04-26T13:05:27.460Z,16.94
2018-04-26T13:07:54.995Z,16.72
2018-04-26T13:10:22.460Z,16.36
2018-04-26T13:12:49.954Z,17.72
2018-04-26T13:15:17.455Z,15.42
2018-04-26T13:17:44.997Z,15.08
2018-04-26T13:20:12.478Z,15.88
2018-04-26T13:22:39.980Z,15.34
2018-04-26T13:25:07.542Z,15.86
2018-04-26T13:27:35.221Z,14.77
2018-04-26T13:30:02.710Z,15.26
2018-04-26T13:32:30.190Z,15.00
2018-04-26T13:34:57.682Z,14.80
2018-04-26T13:37:25.225Z,15.45
2018-04-26T13:39:52.782Z,13.28
2018-04-26T13:42:20.210Z,13.22
2018-04-26T13:44:47.696Z,12.69
2018-04-26T13:47:15.261Z,13.03
2018-04-26T13:49:42.762Z,12.67
2018-04-26T13:52:10.221Z,13.22
2018-04-26T13:54:37.678Z,13.70
2018-04-26T13:57:05.195Z,13.39
2018-04-26T13:59:32.660Z,13.50
2018-04-26T14:02:00.183Z,13.29
2018-04-26T14:04:27.659Z,12.18
2018-04-26T14:06:55.146Z,10.81
2018-04-26T14:09:22.614Z,10.00
2018-04-26T14:11:50.143Z,11.17
2018-04-26T14:14:17.631Z,11.95
2018-04-26T14:16:45.118Z,11.97
2018-04-26T14:19:12.595Z,12.51
2018-04-26T14:21:40.090Z,14.61
2018-04-26T14:24:07.612Z,11.62
2018-04-26T14:26:35.117Z,10.63
2018-04-26T14:29:02.603Z,11.10
2018-04-26T14:31:30.090Z,10.52
2018-04-26T14:33:57.556Z,13.42
2018-04-26T14:36:25.058Z,12.55
2018-04-26T14:38:52.523Z,14.11
2018-04-26T14:41:20.007Z,13.79
2018-04-26T14:43:47.470Z,11.66
2018-04-26T14:46:15.294Z,11.27
2018-04-26T14:48:42.780Z,12.89
2018-04-26T14:51:10.373Z,10.49
2018-04-26T14:53:37.835Z,10.77
2018-04-26T14:56:05.354Z,13.61
2018-04-26T14:58:32.825Z,16.39
2018-04-26T15:01:05.041Z,17.33
2018-04-26T15:03:32.541Z,18.10
2018-04-26T15:06:00.011Z,16.89
2018-04-26T15:08:27.515Z,16.01
2018-04-26T15:10:54.990Z,17.91
2018-04-26T15:13:22.476Z,19.37
2018-04-26T15:15:49.938Z,19.67
2018-04-26T15:18:17.433Z,19.94
2018-04-26T15:20:44.927Z,20.41
2018-04-26T15:23:12.409Z,19.91
2018-04-26T15:25:39.908Z,19.18
2018-04-26T15:28:07.714Z,19.92
2018-04-26T15:30:35.183Z,20.73
2018-04-26T15:33:02.666Z,18.81
2018-04-26T15:35:30.139Z,18.54
2018-04-26T15:37:57.618Z,18.38
2018-04-26T15:40:25.108Z,16.93
2018-04-26T15:42:52.590Z,16.24
2018-04-26T15:45:20.047Z,14.72
2018-04-26T15:47:47.529Z,15.15
2018-04-26T15:50:15.173Z,14.36
2018-04-26T15:56:12.974Z,16.07
2018-04-26T16:02:19.629Z,16.16
2018-04-26T16:04:58.913Z,13.80
2018-04-26T16:07:54.749Z,15.22
2018-04-26T16:10:39.910Z,16.98
2018-04-26T16:13:24.774Z,17.58
2018-04-26T16:16:09.750Z,17.17
2018-04-26T16:18:48.962Z,16.62
2018-04-26T16:21:34.975Z,14.33
2018-04-26T16:24:33.731Z,14.08
2018-04-26T16:27:18.842Z,15.22
2018-04-26T16:29:58.174Z,17.58
2018-04-26T16:32:37.655Z,16.50
2018-04-26T16:35:21.202Z,14.41
2018-04-26T16:38:06.303Z,12.47
2018-04-26T16:40:33.776Z,12.46
2018-04-26T16:43:01.327Z,12.59
2018-04-26T16:45:28.756Z,11.68
2018-04-26T16:47:56.241Z,11.71
2018-04-26T16:50:23.704Z,13.26
2018-04-26T16:52:51.180Z,15.31
2018-04-26T16:55:18.697Z,18.26
2018-04-26T16:57:46.161Z,18.76
2018-04-26T17:00:13.670Z,18.17
2018-04-26T17:02:44.444Z,15.37
2018-04-26T17:05:12.150Z,16.14
2018-04-26T17:07:41.614Z,18.09
2018-04-26T17:10:09.329Z,19.39
2018-04-26T17:12:36.876Z,21.01
2018-04-26T17:15:04.366Z,21.28
2018-04-26T17:17:31.843Z,22.19
2018-04-26T17:19:59.325Z,22.78
2018-04-26T17:22:26.783Z,23.28
2018-04-26T17:24:54.308Z,23.57
2018-04-26T17:27:21.771Z,24.37
2018-04-26T17:29:49.270Z,24.49
2018-04-26T17:32:16.731Z,24.71
2018-04-26T17:34:44.224Z,25.71
2018-04-26T17:37:11.714Z,24.86
2018-04-26T17:39:39.194Z,25.14
2018-04-26T17:42:06.663Z,25.02
2018-04-26T17:44:34.155Z,25.01
2018-04-26T17:47:01.614Z,25.27
2018-04-26T17:49:29.137Z,25.17
2018-04-26T17:51:56.606Z,25.54
2018-04-26T17:54:24.066Z,25.90
2018-04-26T17:56:51.582Z,26.57
2018-04-26T17:59:19.070Z,27.02
2018-04-26T18:01:46.591Z,27.33
2018-04-26T18:04:14.047Z,27.87
2018-04-26T18:06:41.546Z,27.73
2018-04-26T18:09:09.002Z,27.91
2018-04-26T18:11:36.486Z,28.15
2018-04-26T18:14:03.957Z,27.88
2018-04-26T18:16:31.458Z,28.28
2018-04-26T18:18:58.922Z,28.78
2018-04-26T18:21:26.406Z,28.41
2018-04-26T18:23:53.902Z,28.64
2018-04-26T18:26:21.398Z,28.87
2018-04-26T18:28:48.863Z,28.86
2018-04-26T18:31:16.345Z,29.08
2018-04-26T18:33:43.814Z,29.14
2018-04-26T18:36:11.299Z,29.54
2018-04-26T18:38:38.754Z,30.01
2018-04-26T18:41:06.229Z,30.11
2018-04-26T18:43:35.167Z,30.22
2018-04-26T18:46:02.750Z,30.17
2018-04-26T18:48:30.281Z,30.37
2018-04-26T18:50:58.197Z,31.01
2018-04-26T18:53:26.100Z,30.86
2018-04-26T18:55:53.595Z,31.49
2018-04-26T18:58:21.085Z,31.10
2018-04-26T19:00:48.571Z,31.74
2018-04-26T19:03:16.131Z,32.25
2018-04-26T19:05:43.646Z,32.17
2018-04-26T19:08:11.146Z,32.35
2018-04-26T19:10:41.016Z,31.79
2018-04-26T19:13:09.213Z,32.09
2018-04-26T19:15:36.763Z,32.68
2018-04-26T19:18:04.694Z,32.74
2018-04-26T19:20:32.243Z,32.35
2018-04-26T19:22:59.742Z,32.25
2018-04-26T19:25:27.246Z,33.27
2018-04-26T19:27:54.827Z,33.57
2018-04-26T19:30:22.336Z,33.23
2018-04-26T19:32:49.845Z,33.37
2018-04-26T19:35:17.354Z,33.48
2018-04-26T19:37:44.833Z,33.33
2018-04-26T19:40:13.026Z,34.25
2018-04-26T19:42:40.586Z,34.36
2018-04-26T19:45:08.110Z,34.65
2018-04-26T19:47:35.605Z,35.47
2018-04-26T19:50:04.921Z,35.40
2018-04-26T19:52:32.451Z,35.42
2018-04-26T19:54:59.911Z,35.59
2018-04-26T19:57:27.403Z,36.02
2018-04-26T19:59:54.860Z,35.79
2018-04-26T20:02:22.610Z,36.27
2018-04-26T20:04:50.131Z,36.42
2018-04-26T20:07:17.603Z,36.92
2018-04-26T20:09:45.206Z,36.64
2018-04-26T20:12:12.679Z,37.28
2018-04-26T20:14:40.166Z,37.44
2018-04-26T20:17:07.803Z,36.83
2018-04-26T20:19:35.310Z,38.38
2018-04-26T20:22:02.786Z,37.51
2018-04-26T20:24:30.286Z,38.49
2018-04-26T20:26:59.706Z,38.12
2018-04-26T20:29:27.208Z,37.97
2018-04-26T20:31:54.682Z,37.96
2018-04-26T20:34:22.169Z,38.12
2018-04-26T20:36:49.634Z,38.02
2018-04-26T20:39:17.127Z,38.62
2018-04-26T20:41:56.733Z,38.17
2018-04-26T20:44:36.189Z,38.12
2018-04-26T20:47:03.764Z,38.39
2018-04-26T20:49:31.249Z,38.12
2018-04-26T20:51:58.708Z,38.46
2018-04-26T20:54:26.209Z,37.90
2018-04-26T20:56:55.384Z,38.64
2018-04-26T20:59:22.870Z,39.34
2018-04-26T21:01:50.379Z,39.20
2018-04-26T21:04:17.903Z,39.06
2018-04-26T21:06:45.358Z,39.92
2018-04-26T21:09:12.926Z,39.40
2018-04-26T21:11:40.465Z,39.29
2018-04-26T21:14:08.084Z,40.04
2018-04-26T21:16:35.522Z,39.89
2018-04-26T21:19:02.986Z,39.96
2018-04-26T21:21:30.566Z,39.86
2018-04-26T21:24:01.769Z,39.92
2018-04-26T21:26:29.475Z,40.85
2018-04-26T21:28:56.956Z,40.38
2018-04-26T21:31:26.622Z,40.73
2018-04-26T21:33:54.362Z,41.38
2018-04-26T21:36:21.846Z,41.54
2018-04-26T21:38:49.341Z,41.51
2018-04-26T21:41:16.854Z,40.47
2018-04-26T21:43:44.325Z,41.12
2018-04-26T21:46:11.817Z,40.15
2018-04-26T21:48:39.282Z,40.44
2018-04-26T21:51:12.439Z,40.72
2018-04-26T21:53:45.606Z,40.96
2018-04-26T21:56:18.849Z,40.76
2018-04-26T21:58:51.994Z,41.48
2018-04-26T22:01:25.202Z,43.11
2018-04-26T22:07:02.714Z,42.33
2018-04-26T22:09:30.206Z,42.40
2018-04-26T22:11:57.691Z,42.64
2018-04-26T22:14:25.154Z,42.15
2018-04-26T22:16:52.629Z,42.35
2018-04-26T22:19:20.090Z,41.96
2018-04-26T22:21:47.574Z,43.25
2018-04-26T22:24:15.037Z,43.98
2018-04-26T22:26:42.519Z,43.26
2018-04-26T22:29:09.982Z,44.13
2018-04-26T22:31:37.467Z,43.47
2018-04-26T22:34:04.922Z,44.96
2018-04-26T22:36:32.402Z,44.94
2018-04-26T22:38:59.857Z,45.71
2018-04-26T22:41:27.336Z,44.61
2018-04-26T22:43:54.794Z,45.68
2018-04-26T22:46:22.280Z,45.58
2018-04-26T22:48:49.735Z,46.00
2018-04-26T22:51:17.230Z,46.17
2018-04-26T22:53:44.695Z,46.56
2018-04-26T22:56:12.181Z,47.22
2018-04-26T22:58:39.642Z,46.86
2018-04-26T23:01:07.138Z,47.50
2018-04-26T23:03:34.612Z,47.71
2018-04-26T23:06:02.107Z,47.74
2018-04-26T23:08:29.566Z,47.97
2018-04-26T23:10:57.026Z,47.72
2018-04-26T23:13:24.510Z,47.81
2018-04-26T23:15:51.974Z,47.60
2018-04-26T23:18:19.463Z,48.60
2018-04-26T23:20:46.918Z,48.49
2018-04-26T23:23:14.394Z,47.81
2018-04-26T23:25:41.853Z,48.83
2018-04-26T23:28:09.373Z,48.04
2018-04-26T23:30:36.849Z,48.32
2018-04-26T23:33:04.348Z,48.88
2018-04-26T23:35:31.807Z,48.25
2018-04-26T23:37:59.287Z,48.50
2018-04-26T23:40:26.742Z,48.33
2018-04-26T23:42:54.228Z,48.54
2018-04-26T23:45:21.694Z,48.46
2018-04-26T23:47:49.175Z,48.46
2018-04-26T23:50:16.641Z,48.67
2018-04-26T23:52:44.118Z,48.77
2018-04-26T23:55:11.582Z,49.34
2018-04-26T23:57:39.071Z,48.83
